sensor_id;sensor_type;location;lat;lon;timestamp;P1;durP1;ratioP1;P2;durP2;ratioP2
15295;SDS011;7749;49.964;7.890;2023-06-10T00:02:28;9.68;;;7.32;;
15295;SDS011;7749;49.964;7.890;2023-06-10T00:04:55;8.18;;;7.47;;
15295;SDS011;7749;49.964;7.890;2023-06-10T00:07:24;8.60;;;7.80;;
15295;SDS011;7749;49.964;7.890;2023-06-10T00:09:51;10.63;;;7.75;;
15295;SDS011;7749;49.964;7.890;2023-06-10T00:12:19;8.70;;;7.90;;
15295;SDS011;7749;49.964;7.890;2023-06-10T00:14:47;8.65;;;7.93;;
15295;SDS011;7749;49.964;7.890;2023-06-10T00:17:17;8.60;;;7.90;;
15295;SDS011;7749;49.964;7.890;2023-06-10T00:19:44;8.90;;;8.05;;
15295;SDS011;7749;49.964;7.890;2023-06-10T00:22:14;9.02;;;7.55;;
15295;SDS011;7749;49.964;7.890;2023-06-10T00:24:41;8.63;;;7.82;;
15295;SDS011;7749;49.964;7.890;2023-06-10T00:27:09;9.25;;;8.15;;
15295;SDS011;7749;49.964;7.890;2023-06-10T00:29:36;8.82;;;8.02;;
15295;SDS011;7749;49.964;7.890;2023-06-10T00:32:04;8.48;;;7.78;;
15295;SDS011;7749;49.964;7.890;2023-06-10T00:34:32;8.07;;;7.38;;
15295;SDS011;7749;49.964;7.890;2023-06-10T00:36:59;9.10;;;8.32;;
15295;SDS011;7749;49.964;7.890;2023-06-10T00:39:26;8.88;;;8.07;;
15295;SDS011;7749;49.964;7.890;2023-06-10T00:41:54;8.85;;;7.97;;
15295;SDS011;7749;49.964;7.890;2023-06-10T00:44:21;8.63;;;7.82;;
15295;SDS011;7749;49.964;7.890;2023-06-10T00:46:48;8.43;;;7.72;;
15295;SDS011;7749;49.964;7.890;2023-06-10T00:49:18;9.57;;;8.68;;
15295;SDS011;7749;49.964;7.890;2023-06-10T00:51:45;8.35;;;7.65;;
15295;SDS011;7749;49.964;7.890;2023-06-10T00:54:13;7.97;;;7.38;;
15295;SDS011;7749;49.964;7.890;2023-06-10T00:56:40;7.88;;;7.18;;
15295;SDS011;7749;49.964;7.890;2023-06-10T00:59:09;8.23;;;7.47;;
15295;SDS011;7749;49.964;7.890;2023-06-10T01:01:37;8.63;;;7.75;;
15295;SDS011;7749;49.964;7.890;2023-06-10T01:04:06;8.32;;;7.57;;
15295;SDS011;7749;49.964;7.890;2023-06-10T01:09:23;8.30;;;7.53;;
15295;SDS011;7749;49.964;7.890;2023-06-10T01:12:10;9.30;;;8.40;;
15295;SDS011;7749;49.964;7.890;2023-06-10T01:14:55;7.90;;;7.10;;
15295;SDS011;7749;49.964;7.890;2023-06-10T01:17:25;8.20;;;7.40;;
15295;SDS011;7749;49.964;7.890;2023-06-10T01:19:54;8.32;;;7.55;;
15295;SDS011;7749;49.964;7.890;2023-06-10T01:22:26;8.60;;;7.70;;
15295;SDS011;7749;49.964;7.890;2023-06-10T01:24:59;8.18;;;7.57;;
15295;SDS011;7749;49.964;7.890;2023-06-10T01:27:28;8.23;;;7.43;;
15295;SDS011;7749;49.964;7.890;2023-06-10T01:30:01;8.88;;;8.07;;
15295;SDS011;7749;49.964;7.890;2023-06-10T01:32:45;8.00;;;7.20;;
15295;SDS011;7749;49.964;7.890;2023-06-10T01:35:17;9.07;;;7.78;;
15295;SDS011;7749;49.964;7.890;2023-06-10T01:37:46;8.40;;;7.70;;
15295;SDS011;7749;49.964;7.890;2023-06-10T01:40:14;9.63;;;7.65;;
15295;SDS011;7749;49.964;7.890;2023-06-10T01:42:43;8.40;;;7.60;;
15295;SDS011;7749;49.964;7.890;2023-06-10T01:45:10;8.30;;;7.60;;
15295;SDS011;7749;49.964;7.890;2023-06-10T01:47:38;8.73;;;7.93;;
15295;SDS011;7749;49.964;7.890;2023-06-10T01:50:05;8.70;;;7.90;;
15295;SDS011;7749;49.964;7.890;2023-06-10T01:52:33;8.15;;;7.43;;
15295;SDS011;7749;49.964;7.890;2023-06-10T01:55:00;9.13;;;8.32;;
15295;SDS011;7749;49.964;7.890;2023-06-10T01:57:28;9.27;;;8.32;;
15295;SDS011;7749;49.964;7.890;2023-06-10T01:59:55;8.13;;;7.32;;
15295;SDS011;7749;49.964;7.890;2023-06-10T02:02:22;8.57;;;7.78;;
15295;SDS011;7749;49.964;7.890;2023-06-10T02:04:51;9.15;;;7.90;;
15295;SDS011;7749;49.964;7.890;2023-06-10T02:07:18;8.48;;;7.78;;
15295;SDS011;7749;49.964;7.890;2023-06-10T02:09:46;8.55;;;7.60;;
15295;SDS011;7749;49.964;7.890;2023-06-10T02:12:13;8.00;;;7.25;;
15295;SDS011;7749;49.964;7.890;2023-06-10T02:14:44;8.20;;;7.53;;
15295;SDS011;7749;49.964;7.890;2023-06-10T02:17:11;8.57;;;7.85;;
15295;SDS011;7749;49.964;7.890;2023-06-10T02:19:39;8.90;;;8.10;;
15295;SDS011;7749;49.964;7.890;2023-06-10T02:22:09;8.60;;;7.70;;
15295;SDS011;7749;49.964;7.890;2023-06-10T02:24:37;8.70;;;8.00;;
15295;SDS011;7749;49.964;7.890;2023-06-10T02:27:07;8.57;;;7.88;;
15295;SDS011;7749;49.964;7.890;2023-06-10T02:29:35;8.38;;;7.57;;
15295;SDS011;7749;49.964;7.890;2023-06-10T02:32:02;8.35;;;7.55;;
15295;SDS011;7749;49.964;7.890;2023-06-10T02:34:30;8.32;;;7.57;;
15295;SDS011;7749;49.964;7.890;2023-06-10T02:36:57;8.85;;;7.53;;
15295;SDS011;7749;49.964;7.890;2023-06-10T02:39:25;8.43;;;7.72;;
15295;SDS011;7749;49.964;7.890;2023-06-10T02:41:52;8.82;;;7.15;;
15295;SDS011;7749;49.964;7.890;2023-06-10T02:44:19;8.00;;;7.30;;
15295;SDS011;7749;49.964;7.890;2023-06-10T02:46:47;8.98;;;8.05;;
15295;SDS011;7749;49.964;7.890;2023-06-10T02:49:14;8.27;;;7.43;;
15295;SDS011;7749;49.964;7.890;2023-06-10T02:51:42;7.88;;;7.07;;
15295;SDS011;7749;49.964;7.890;2023-06-10T02:54:09;10.85;;;7.78;;
15295;SDS011;7749;49.964;7.890;2023-06-10T02:56:39;8.07;;;7.32;;
15295;SDS011;7749;49.964;7.890;2023-06-10T02:59:08;8.55;;;7.75;;
15295;SDS011;7749;49.964;7.890;2023-06-10T03:01:36;10.55;;;8.38;;
15295;SDS011;7749;49.964;7.890;2023-06-10T03:04:04;8.10;;;7.47;;
15295;SDS011;7749;49.964;7.890;2023-06-10T03:06:32;7.97;;;7.28;;
15295;SDS011;7749;49.964;7.890;2023-06-10T03:09:00;8.48;;;7.57;;
15295;SDS011;7749;49.964;7.890;2023-06-10T03:11:29;8.32;;;7.63;;
15295;SDS011;7749;49.964;7.890;2023-06-10T03:13:57;8.98;;;7.97;;
15295;SDS011;7749;49.964;7.890;2023-06-10T03:16:24;7.75;;;6.82;;
15295;SDS011;7749;49.964;7.890;2023-06-10T03:18:57;7.90;;;7.18;;
15295;SDS011;7749;49.964;7.890;2023-06-10T03:21:24;11.95;;;8.15;;
15295;SDS011;7749;49.964;7.890;2023-06-10T03:23:55;8.50;;;7.80;;
15295;SDS011;7749;49.964;7.890;2023-06-10T03:26:23;8.83;;;8.10;;
15295;SDS011;7749;49.964;7.890;2023-06-10T03:28:50;9.07;;;7.80;;
15295;SDS011;7749;49.964;7.890;2023-06-10T03:31:17;8.87;;;8.07;;
15295;SDS011;7749;49.964;7.890;2023-06-10T03:33:45;9.87;;;8.67;;
15295;SDS011;7749;49.964;7.890;2023-06-10T03:36:12;9.00;;;8.20;;
15295;SDS011;7749;49.964;7.890;2023-06-10T03:38:42;9.57;;;8.77;;
15295;SDS011;7749;49.964;7.890;2023-06-10T03:41:11;9.60;;;8.70;;
15295;SDS011;7749;49.964;7.890;2023-06-10T03:43:38;11.83;;;9.20;;
15295;SDS011;7749;49.964;7.890;2023-06-10T03:46:07;9.67;;;8.73;;
15295;SDS011;7749;49.964;7.890;2023-06-10T03:48:34;9.77;;;8.77;;
15295;SDS011;7749;49.964;7.890;2023-06-10T03:51:03;9.03;;;8.07;;
15295;SDS011;7749;49.964;7.890;2023-06-10T03:53:30;9.30;;;8.50;;
15295;SDS011;7749;49.964;7.890;2023-06-10T03:55:58;9.60;;;8.70;;
15295;SDS011;7749;49.964;7.890;2023-06-10T03:58:25;8.97;;;8.20;;
15295;SDS011;7749;49.964;7.890;2023-06-10T04:00:53;9.03;;;8.13;;
15295;SDS011;7749;49.964;7.890;2023-06-10T04:03:22;9.90;;;9.00;;
15295;SDS011;7749;49.964;7.890;2023-06-10T04:05:49;10.77;;;9.37;;
15295;SDS011;7749;49.964;7.890;2023-06-10T04:08:17;9.30;;;8.50;;
15295;SDS011;7749;49.964;7.890;2023-06-10T04:10:44;9.67;;;8.87;;
15295;SDS011;7749;49.964;7.890;2023-06-10T04:13:12;9.60;;;8.70;;
15295;SDS011;7749;49.964;7.890;2023-06-10T04:15:41;9.30;;;8.40;;
15295;SDS011;7749;49.964;7.890;2023-06-10T04:18:08;9.77;;;8.43;;
15295;SDS011;7749;49.964;7.890;2023-06-10T04:20:38;9.73;;;8.73;;
15295;SDS011;7749;49.964;7.890;2023-06-10T04:23:05;9.37;;;8.57;;
15295;SDS011;7749;49.964;7.890;2023-06-10T04:25:33;9.30;;;8.43;;
15295;SDS011;7749;49.964;7.890;2023-06-10T04:28:01;9.30;;;8.43;;
15295;SDS011;7749;49.964;7.890;2023-06-10T04:30:28;9.37;;;8.57;;
15295;SDS011;7749;49.964;7.890;2023-06-10T04:32:58;9.87;;;9.07;;
15295;SDS011;7749;49.964;7.890;2023-06-10T04:35:25;12.23;;;9.00;;
15295;SDS011;7749;49.964;7.890;2023-06-10T04:37:56;10.20;;;9.20;;
15295;SDS011;7749;49.964;7.890;2023-06-10T04:40:23;9.43;;;8.57;;
15295;SDS011;7749;49.964;7.890;2023-06-10T04:42:51;8.63;;;7.93;;
15295;SDS011;7749;49.964;7.890;2023-06-10T04:45:18;9.50;;;8.55;;
15295;SDS011;7749;49.964;7.890;2023-06-10T04:47:46;9.80;;;8.00;;
15295;SDS011;7749;49.964;7.890;2023-06-10T04:50:13;8.60;;;7.70;;
15295;SDS011;7749;49.964;7.890;2023-06-10T04:52:40;9.00;;;8.20;;
15295;SDS011;7749;49.964;7.890;2023-06-10T04:55:08;8.90;;;8.10;;
15295;SDS011;7749;49.964;7.890;2023-06-10T04:57:37;8.87;;;8.07;;
15295;SDS011;7749;49.964;7.890;2023-06-10T05:00:04;9.57;;;8.53;;
15295;SDS011;7749;49.964;7.890;2023-06-10T05:02:33;9.55;;;8.65;;
15295;SDS011;7749;49.964;7.890;2023-06-10T05:05:00;9.38;;;8.40;;
15295;SDS011;7749;49.964;7.890;2023-06-10T05:07:27;9.20;;;8.30;;
15295;SDS011;7749;49.964;7.890;2023-06-10T05:09:55;10.03;;;8.13;;
15295;SDS011;7749;49.964;7.890;2023-06-10T05:12:24;9.30;;;8.50;;
15295;SDS011;7749;49.964;7.890;2023-06-10T05:14:52;9.27;;;8.48;;
15295;SDS011;7749;49.964;7.890;2023-06-10T05:17:19;10.90;;;8.82;;
15295;SDS011;7749;49.964;7.890;2023-06-10T05:19:46;8.75;;;7.65;;
15295;SDS011;7749;49.964;7.890;2023-06-10T05:22:14;10.50;;;8.43;;
15295;SDS011;7749;49.964;7.890;2023-06-10T05:24:43;8.95;;;8.15;;
15295;SDS011;7749;49.964;7.890;2023-06-10T05:27:11;9.32;;;8.40;;
15295;SDS011;7749;49.964;7.890;2023-06-10T05:29:38;9.23;;;8.23;;
15295;SDS011;7749;49.964;7.890;2023-06-10T05:32:06;8.55;;;7.85;;
15295;SDS011;7749;49.964;7.890;2023-06-10T05:34:37;9.50;;;8.60;;
15295;SDS011;7749;49.964;7.890;2023-06-10T05:37:05;8.98;;;8.18;;
15295;SDS011;7749;49.964;7.890;2023-06-10T05:39:32;9.88;;;8.63;;
15295;SDS011;7749;49.964;7.890;2023-06-10T05:42:00;9.45;;;8.50;;
15295;SDS011;7749;49.964;7.890;2023-06-10T05:44:31;9.75;;;8.85;;
15295;SDS011;7749;49.964;7.890;2023-06-10T05:47:02;8.40;;;7.60;;
15295;SDS011;7749;49.964;7.890;2023-06-10T05:49:30;9.05;;;8.25;;
15295;SDS011;7749;49.964;7.890;2023-06-10T05:51:57;8.65;;;7.78;;
15295;SDS011;7749;49.964;7.890;2023-06-10T05:54:26;8.82;;;8.02;;
15295;SDS011;7749;49.964;7.890;2023-06-10T05:56:56;10.43;;;8.00;;
15295;SDS011;7749;49.964;7.890;2023-06-10T05:59:23;9.20;;;8.30;;
15295;SDS011;7749;49.964;7.890;2023-06-10T06:01:51;8.52;;;7.70;;
15295;SDS011;7749;49.964;7.890;2023-06-10T06:04:18;9.48;;;8.20;;
15295;SDS011;7749;49.964;7.890;2023-06-10T06:06:45;8.60;;;7.90;;
15295;SDS011;7749;49.964;7.890;2023-06-10T06:09:14;8.23;;;7.40;;
15295;SDS011;7749;49.964;7.890;2023-06-10T06:11:41;8.60;;;7.47;;
15295;SDS011;7749;49.964;7.890;2023-06-10T06:14:09;8.80;;;8.00;;
15295;SDS011;7749;49.964;7.890;2023-06-10T06:16:38;8.90;;;8.02;;
15295;SDS011;7749;49.964;7.890;2023-06-10T06:19:06;8.75;;;7.95;;
15295;SDS011;7749;49.964;7.890;2023-06-10T06:21:33;9.27;;;8.38;;
15295;SDS011;7749;49.964;7.890;2023-06-10T06:24:00;8.68;;;7.88;;
15295;SDS011;7749;49.964;7.890;2023-06-10T06:26:28;8.90;;;7.97;;
15295;SDS011;7749;49.964;7.890;2023-06-10T06:28:55;8.68;;;7.93;;
15295;SDS011;7749;49.964;7.890;2023-06-10T06:31:28;8.35;;;7.10;;
15295;SDS011;7749;49.964;7.890;2023-06-10T06:33:56;8.43;;;7.18;;
15295;SDS011;7749;49.964;7.890;2023-06-10T06:36:24;12.07;;;7.90;;
15295;SDS011;7749;49.964;7.890;2023-06-10T06:38:52;9.23;;;8.32;;
15295;SDS011;7749;49.964;7.890;2023-06-10T06:41:19;8.50;;;7.68;;
15295;SDS011;7749;49.964;7.890;2023-06-10T06:43:48;8.40;;;7.53;;
15295;SDS011;7749;49.964;7.890;2023-06-10T06:46:15;8.63;;;7.80;;
15295;SDS011;7749;49.964;7.890;2023-06-10T06:48:43;9.45;;;7.43;;
15295;SDS011;7749;49.964;7.890;2023-06-10T06:51:12;7.90;;;7.15;;
15295;SDS011;7749;49.964;7.890;2023-06-10T06:53:40;8.27;;;7.25;;
15295;SDS011;7749;49.964;7.890;2023-06-10T06:56:13;8.90;;;7.35;;
15295;SDS011;7749;49.964;7.890;2023-06-10T06:58:40;9.70;;;7.60;;
15295;SDS011;7749;49.964;7.890;2023-06-10T07:01:09;7.65;;;6.95;;
15295;SDS011;7749;49.964;7.890;2023-06-10T07:03:37;8.57;;;7.60;;
15295;SDS011;7749;49.964;7.890;2023-06-10T07:06:04;8.15;;;7.32;;
15295;SDS011;7749;49.964;7.890;2023-06-10T07:08:32;7.18;;;6.57;;
15295;SDS011;7749;49.964;7.890;2023-06-10T07:10:59;8.40;;;7.70;;
15295;SDS011;7749;49.964;7.890;2023-06-10T07:13:26;7.63;;;6.93;;
15295;SDS011;7749;49.964;7.890;2023-06-10T07:15:57;7.57;;;6.88;;
15295;SDS011;7749;49.964;7.890;2023-06-10T07:18:24;8.30;;;7.45;;
15295;SDS011;7749;49.964;7.890;2023-06-10T07:20:51;7.65;;;6.95;;
15295;SDS011;7749;49.964;7.890;2023-06-10T07:23:19;9.82;;;6.85;;
15295;SDS011;7749;49.964;7.890;2023-06-10T07:25:46;11.10;;;6.97;;
15295;SDS011;7749;49.964;7.890;2023-06-10T07:28:14;8.20;;;6.68;;
15295;SDS011;7749;49.964;7.890;2023-06-10T07:30:41;7.45;;;6.53;;
15295;SDS011;7749;49.964;7.890;2023-06-10T07:33:12;7.80;;;7.05;;
15295;SDS011;7749;49.964;7.890;2023-06-10T07:35:39;9.27;;;6.75;;
15295;SDS011;7749;49.964;7.890;2023-06-10T07:38:09;9.38;;;6.85;;
15295;SDS011;7749;49.964;7.890;2023-06-10T07:40:37;6.80;;;6.00;;
15295;SDS011;7749;49.964;7.890;2023-06-10T07:43:04;8.70;;;7.13;;
15295;SDS011;7749;49.964;7.890;2023-06-10T07:45:32;8.07;;;5.80;;
15295;SDS011;7749;49.964;7.890;2023-06-10T07:47:59;6.97;;;5.95;;
15295;SDS011;7749;49.964;7.890;2023-06-10T07:50:27;7.28;;;6.50;;
15295;SDS011;7749;49.964;7.890;2023-06-10T07:52:55;7.88;;;7.07;;
15295;SDS011;7749;49.964;7.890;2023-06-10T07:55:22;7.53;;;6.80;;
15295;SDS011;7749;49.964;7.890;2023-06-10T07:57:52;11.75;;;7.07;;
15295;SDS011;7749;49.964;7.890;2023-06-10T08:00:20;6.97;;;6.38;;
15295;SDS011;7749;49.964;7.890;2023-06-10T08:02:48;7.55;;;6.43;;
15295;SDS011;7749;49.964;7.890;2023-06-10T08:05:16;7.13;;;6.43;;
15295;SDS011;7749;49.964;7.890;2023-06-10T08:07:44;6.82;;;6.22;;
15295;SDS011;7749;49.964;7.890;2023-06-10T08:10:14;19.10;;;9.25;;
15295;SDS011;7749;49.964;7.890;2023-06-10T08:12:41;11.75;;;6.78;;
15295;SDS011;7749;49.964;7.890;2023-06-10T08:15:09;6.85;;;6.22;;
15295;SDS011;7749;49.964;7.890;2023-06-10T08:17:37;9.05;;;5.90;;
15295;SDS011;7749;49.964;7.890;2023-06-10T08:20:06;7.10;;;6.40;;
15295;SDS011;7749;49.964;7.890;2023-06-10T08:22:33;6.68;;;6.07;;
15295;SDS011;7749;49.964;7.890;2023-06-10T08:25:01;7.25;;;6.50;;
15295;SDS011;7749;49.964;7.890;2023-06-10T08:27:28;7.57;;;6.88;;
15295;SDS011;7749;49.964;7.890;2023-06-10T08:29:56;9.15;;;5.95;;
15295;SDS011;7749;49.964;7.890;2023-06-10T08:32:23;7.40;;;5.90;;
15295;SDS011;7749;49.964;7.890;2023-06-10T08:34:50;8.43;;;5.80;;
15295;SDS011;7749;49.964;7.890;2023-06-10T08:37:18;6.72;;;6.03;;
15295;SDS011;7749;49.964;7.890;2023-06-10T08:39:45;6.95;;;5.78;;
15295;SDS011;7749;49.964;7.890;2023-06-10T08:42:22;5.70;;;5.20;;
15295;SDS011;7749;49.964;7.890;2023-06-10T08:44:56;5.70;;;5.20;;
15295;SDS011;7749;49.964;7.890;2023-06-10T08:47:25;6.65;;;5.47;;
15295;SDS011;7749;49.964;7.890;2023-06-10T08:49:56;8.38;;;5.47;;
15295;SDS011;7749;49.964;7.890;2023-06-10T08:52:35;6.25;;;5.72;;
15295;SDS011;7749;49.964;7.890;2023-06-10T08:55:18;6.93;;;5.78;;
15295;SDS011;7749;49.964;7.890;2023-06-10T08:57:56;7.53;;;6.03;;
15295;SDS011;7749;49.964;7.890;2023-06-10T09:00:26;6.05;;;5.53;;
15295;SDS011;7749;49.964;7.890;2023-06-10T09:02:54;6.30;;;5.68;;
15295;SDS011;7749;49.964;7.890;2023-06-10T09:05:23;7.07;;;6.38;;
15295;SDS011;7749;49.964;7.890;2023-06-10T09:07:51;6.55;;;5.68;;
15295;SDS011;7749;49.964;7.890;2023-06-10T09:10:19;6.70;;;5.85;;
15295;SDS011;7749;49.964;7.890;2023-06-10T09:12:47;6.90;;;6.20;;
15295;SDS011;7749;49.964;7.890;2023-06-10T09:15:14;6.43;;;5.82;;
15295;SDS011;7749;49.964;7.890;2023-06-10T09:17:44;6.35;;;5.53;;
15295;SDS011;7749;49.964;7.890;2023-06-10T09:20:11;9.07;;;6.63;;
15295;SDS011;7749;49.964;7.890;2023-06-10T09:22:42;6.22;;;5.72;;
15295;SDS011;7749;49.964;7.890;2023-06-10T09:25:11;6.50;;;5.90;;
15295;SDS011;7749;49.964;7.890;2023-06-10T09:30:27;6.75;;;5.82;;
15295;SDS011;7749;49.964;7.890;2023-06-10T09:33:00;6.78;;;5.88;;
15295;SDS011;7749;49.964;7.890;2023-06-10T09:35:30;6.50;;;5.82;;
15295;SDS011;7749;49.964;7.890;2023-06-10T09:37:58;7.72;;;6.30;;
15295;SDS011;7749;49.964;7.890;2023-06-10T09:40:26;8.15;;;6.10;;
15295;SDS011;7749;49.964;7.890;2023-06-10T09:42:55;6.30;;;5.80;;
15295;SDS011;7749;49.964;7.890;2023-06-10T09:45:29;6.10;;;5.53;;
15295;SDS011;7749;49.964;7.890;2023-06-10T09:48:00;7.45;;;5.53;;
15295;SDS011;7749;49.964;7.890;2023-06-10T09:50:32;6.22;;;5.72;;
15295;SDS011;7749;49.964;7.890;2023-06-10T09:53:01;6.75;;;6.05;;
15295;SDS011;7749;49.964;7.890;2023-06-10T09:55:32;6.47;;;5.80;;
15295;SDS011;7749;49.964;7.890;2023-06-10T09:58:00;8.02;;;5.60;;
15295;SDS011;7749;49.964;7.890;2023-06-10T10:00:27;8.00;;;5.15;;
15295;SDS011;7749;49.964;7.890;2023-06-10T10:02:54;5.97;;;5.20;;
15295;SDS011;7749;49.964;7.890;2023-06-10T10:05:22;7.25;;;5.50;;
15295;SDS011;7749;49.964;7.890;2023-06-10T10:07:51;7.18;;;5.72;;
15295;SDS011;7749;49.964;7.890;2023-06-10T10:10:19;7.57;;;5.57;;
15295;SDS011;7749;49.964;7.890;2023-06-10T10:12:50;6.55;;;5.63;;
15295;SDS011;7749;49.964;7.890;2023-06-10T10:15:24;5.68;;;5.20;;
15295;SDS011;7749;49.964;7.890;2023-06-10T10:18:09;7.10;;;5.85;;
15295;SDS011;7749;49.964;7.890;2023-06-10T10:20:47;8.10;;;5.63;;
15295;SDS011;7749;49.964;7.890;2023-06-10T10:23:21;6.25;;;5.57;;
15295;SDS011;7749;49.964;7.890;2023-06-10T10:25:53;5.82;;;5.28;;
15295;SDS011;7749;49.964;7.890;2023-06-10T10:28:24;5.57;;;5.07;;
15295;SDS011;7749;49.964;7.890;2023-06-10T10:30:58;6.22;;;5.60;;
15295;SDS011;7749;49.964;7.890;2023-06-10T10:36:13;5.97;;;5.47;;
15295;SDS011;7749;49.964;7.890;2023-06-10T10:38:41;6.18;;;5.32;;
15295;SDS011;7749;49.964;7.890;2023-06-10T10:41:09;5.55;;;4.95;;
15295;SDS011;7749;49.964;7.890;2023-06-10T10:43:37;5.70;;;5.20;;
15295;SDS011;7749;49.964;7.890;2023-06-10T10:46:08;7.57;;;5.63;;
15295;SDS011;7749;49.964;7.890;2023-06-10T10:48:39;6.78;;;5.65;;
15295;SDS011;7749;49.964;7.890;2023-06-10T10:51:11;6.30;;;5.70;;
15295;SDS011;7749;49.964;7.890;2023-06-10T10:53:38;5.95;;;5.38;;
15295;SDS011;7749;49.964;7.890;2023-06-10T10:56:16;6.43;;;5.78;;
15295;SDS011;7749;49.964;7.890;2023-06-10T10:59:03;6.00;;;5.40;;
15295;SDS011;7749;49.964;7.890;2023-06-10T11:01:41;6.72;;;5.30;;
15295;SDS011;7749;49.964;7.890;2023-06-10T11:04:12;5.80;;;5.30;;
15295;SDS011;7749;49.964;7.890;2023-06-10T11:06:40;5.70;;;5.10;;
15295;SDS011;7749;49.964;7.890;2023-06-10T11:09:26;6.45;;;4.50;;
15295;SDS011;7749;49.964;7.890;2023-06-10T11:11:58;5.30;;;4.72;;
15295;SDS011;7749;49.964;7.890;2023-06-10T11:14:29;5.22;;;4.82;;
15295;SDS011;7749;49.964;7.890;2023-06-10T11:16:57;5.65;;;5.15;;
15295;SDS011;7749;49.964;7.890;2023-06-10T11:19:35;6.28;;;4.97;;
15295;SDS011;7749;49.964;7.890;2023-06-10T11:22:07;4.97;;;4.53;;
15295;SDS011;7749;49.964;7.890;2023-06-10T11:24:35;4.57;;;4.18;;
15295;SDS011;7749;49.964;7.890;2023-06-10T11:27:18;4.78;;;4.38;;
15295;SDS011;7749;49.964;7.890;2023-06-10T11:29:58;5.32;;;4.82;;
15295;SDS011;7749;49.964;7.890;2023-06-10T11:32:30;5.88;;;5.38;;
15295;SDS011;7749;49.964;7.890;2023-06-10T11:35:03;6.00;;;5.60;;
15295;SDS011;7749;49.964;7.890;2023-06-10T11:37:31;5.93;;;5.53;;
15295;SDS011;7749;49.964;7.890;2023-06-10T11:39:59;7.35;;;6.22;;
15295;SDS011;7749;49.964;7.890;2023-06-10T11:42:26;6.32;;;5.78;;
15295;SDS011;7749;49.964;7.890;2023-06-10T11:44:54;7.03;;;6.40;;
15295;SDS011;7749;49.964;7.890;2023-06-10T11:47:22;6.80;;;6.28;;
15295;SDS011;7749;49.964;7.890;2023-06-10T11:49:55;5.75;;;5.35;;
15295;SDS011;7749;49.964;7.890;2023-06-10T11:52:30;8.13;;;6.38;;
15295;SDS011;7749;49.964;7.890;2023-06-10T11:54:59;7.15;;;5.72;;
15295;SDS011;7749;49.964;7.890;2023-06-10T11:57:26;6.15;;;5.75;;
15295;SDS011;7749;49.964;7.890;2023-06-10T11:59:54;6.60;;;6.13;;
15295;SDS011;7749;49.964;7.890;2023-06-10T12:02:21;6.60;;;6.03;;
15295;SDS011;7749;49.964;7.890;2023-06-10T12:04:49;6.93;;;6.35;;
15295;SDS011;7749;49.964;7.890;2023-06-10T12:07:18;6.75;;;6.25;;
15295;SDS011;7749;49.964;7.890;2023-06-10T12:09:59;6.88;;;6.25;;
15295;SDS011;7749;49.964;7.890;2023-06-10T12:12:44;7.43;;;6.82;;
15295;SDS011;7749;49.964;7.890;2023-06-10T12:15:22;6.80;;;6.18;;
15295;SDS011;7749;49.964;7.890;2023-06-10T12:17:52;7.05;;;6.55;;
15295;SDS011;7749;49.964;7.890;2023-06-10T12:20:31;6.60;;;6.00;;
15295;SDS011;7749;49.964;7.890;2023-06-10T12:23:08;7.13;;;6.53;;
15295;SDS011;7749;49.964;7.890;2023-06-10T12:25:37;7.15;;;6.40;;
15295;SDS011;7749;49.964;7.890;2023-06-10T12:28:09;6.57;;;6.07;;
15295;SDS011;7749;49.964;7.890;2023-06-10T12:30:37;7.30;;;6.78;;
15295;SDS011;7749;49.964;7.890;2023-06-10T12:33:04;7.22;;;6.63;;
15295;SDS011;7749;49.964;7.890;2023-06-10T12:35:51;7.85;;;7.15;;
15295;SDS011;7749;49.964;7.890;2023-06-10T12:38:23;6.93;;;6.43;;
15295;SDS011;7749;49.964;7.890;2023-06-10T12:40:51;8.60;;;7.60;;
15295;SDS011;7749;49.964;7.890;2023-06-10T12:43:19;7.55;;;6.72;;
15295;SDS011;7749;49.964;7.890;2023-06-10T12:45:47;6.75;;;6.15;;
15295;SDS011;7749;49.964;7.890;2023-06-10T12:48:19;6.57;;;6.07;;
15295;SDS011;7749;49.964;7.890;2023-06-10T12:50:54;5.72;;;5.32;;
15295;SDS011;7749;49.964;7.890;2023-06-10T12:53:23;6.65;;;6.25;;
15295;SDS011;7749;49.964;7.890;2023-06-10T12:55:53;5.70;;;5.22;;
15295;SDS011;7749;49.964;7.890;2023-06-10T12:58:20;5.93;;;5.43;;
15295;SDS011;7749;49.964;7.890;2023-06-10T13:00:48;6.07;;;5.50;;
15295;SDS011;7749;49.964;7.890;2023-06-10T13:03:20;6.35;;;5.85;;
15295;SDS011;7749;49.964;7.890;2023-06-10T13:05:48;7.03;;;5.85;;
15295;SDS011;7749;49.964;7.890;2023-06-10T13:08:15;6.03;;;5.53;;
15295;SDS011;7749;49.964;7.890;2023-06-10T13:10:43;5.90;;;5.40;;
15295;SDS011;7749;49.964;7.890;2023-06-10T13:13:10;6.10;;;5.70;;
15295;SDS011;7749;49.964;7.890;2023-06-10T13:15:37;5.53;;;5.03;;
15295;SDS011;7749;49.964;7.890;2023-06-10T13:18:09;5.35;;;4.95;;
15295;SDS011;7749;49.964;7.890;2023-06-10T13:20:37;5.65;;;5.25;;
15295;SDS011;7749;49.964;7.890;2023-06-10T13:23:04;5.78;;;5.28;;
15295;SDS011;7749;49.964;7.890;2023-06-10T13:25:32;5.30;;;4.80;;
15295;SDS011;7749;49.964;7.890;2023-06-10T13:27:59;6.60;;;5.68;;
15295;SDS011;7749;49.964;7.890;2023-06-10T13:30:27;6.25;;;5.75;;
15295;SDS011;7749;49.964;7.890;2023-06-10T13:32:54;5.40;;;5.00;;
15295;SDS011;7749;49.964;7.890;2023-06-10T13:35:21;5.72;;;5.22;;
15295;SDS011;7749;49.964;7.890;2023-06-10T13:37:49;6.95;;;6.40;;
15295;SDS011;7749;49.964;7.890;2023-06-10T13:40:17;5.43;;;4.97;;
15295;SDS011;7749;49.964;7.890;2023-06-10T13:42:46;6.15;;;5.50;;
15295;SDS011;7749;49.964;7.890;2023-06-10T13:45:17;5.82;;;5.32;;
15295;SDS011;7749;49.964;7.890;2023-06-10T13:47:45;5.60;;;5.10;;
15295;SDS011;7749;49.964;7.890;2023-06-10T13:50:12;5.80;;;5.40;;
15295;SDS011;7749;49.964;7.890;2023-06-10T13:52:40;5.50;;;5.10;;
15295;SDS011;7749;49.964;7.890;2023-06-10T13:55:09;5.75;;;5.32;;
15295;SDS011;7749;49.964;7.890;2023-06-10T13:57:37;6.35;;;5.75;;
15295;SDS011;7749;49.964;7.890;2023-06-10T14:00:05;6.40;;;5.80;;
15295;SDS011;7749;49.964;7.890;2023-06-10T14:02:37;6.35;;;5.80;;
15295;SDS011;7749;49.964;7.890;2023-06-10T14:05:05;6.38;;;5.88;;
15295;SDS011;7749;49.964;7.890;2023-06-10T14:07:35;7.00;;;6.50;;
15295;SDS011;7749;49.964;7.890;2023-06-10T14:10:04;6.10;;;5.60;;
15295;SDS011;7749;49.964;7.890;2023-06-10T14:12:34;6.10;;;5.60;;
15295;SDS011;7749;49.964;7.890;2023-06-10T14:15:02;6.18;;;5.68;;
15295;SDS011;7749;49.964;7.890;2023-06-10T14:17:29;5.72;;;5.32;;
15295;SDS011;7749;49.964;7.890;2023-06-10T14:19:57;5.68;;;5.18;;
15295;SDS011;7749;49.964;7.890;2023-06-10T14:22:24;6.03;;;5.50;;
15295;SDS011;7749;49.964;7.890;2023-06-10T14:24:52;5.60;;;5.20;;
15295;SDS011;7749;49.964;7.890;2023-06-10T14:27:19;5.60;;;5.20;;
15295;SDS011;7749;49.964;7.890;2023-06-10T14:29:47;5.80;;;5.35;;
15295;SDS011;7749;49.964;7.890;2023-06-10T14:32:15;4.93;;;4.63;;
15295;SDS011;7749;49.964;7.890;2023-06-10T14:34:42;5.15;;;4.85;;
15295;SDS011;7749;49.964;7.890;2023-06-10T14:37:11;5.80;;;5.40;;
15295;SDS011;7749;49.964;7.890;2023-06-10T14:39:38;6.03;;;5.40;;
15295;SDS011;7749;49.964;7.890;2023-06-10T14:42:06;5.82;;;5.38;;
15295;SDS011;7749;49.964;7.890;2023-06-10T14:44:35;5.97;;;5.53;;
15295;SDS011;7749;49.964;7.890;2023-06-10T14:47:02;5.38;;;4.88;;
15295;SDS011;7749;49.964;7.890;2023-06-10T14:49:33;5.03;;;4.53;;
15295;SDS011;7749;49.964;7.890;2023-06-10T14:52:00;5.47;;;5.07;;
15295;SDS011;7749;49.964;7.890;2023-06-10T14:54:27;5.25;;;4.95;;
15295;SDS011;7749;49.964;7.890;2023-06-10T14:56:57;4.88;;;4.57;;
15295;SDS011;7749;49.964;7.890;2023-06-10T14:59:24;5.53;;;5.00;;
15295;SDS011;7749;49.964;7.890;2023-06-10T15:01:52;5.95;;;5.40;;
15295;SDS011;7749;49.964;7.890;2023-06-10T15:04:19;5.50;;;5.10;;
15295;SDS011;7749;49.964;7.890;2023-06-10T15:06:50;5.50;;;5.00;;
15295;SDS011;7749;49.964;7.890;2023-06-10T15:09:20;5.22;;;4.90;;
15295;SDS011;7749;49.964;7.890;2023-06-10T15:11:47;5.32;;;4.75;;
15295;SDS011;7749;49.964;7.890;2023-06-10T15:14:15;4.85;;;4.55;;
15295;SDS011;7749;49.964;7.890;2023-06-10T15:16:42;6.03;;;4.72;;
15295;SDS011;7749;49.964;7.890;2023-06-10T15:19:10;4.95;;;4.63;;
15295;SDS011;7749;49.964;7.890;2023-06-10T15:21:37;5.53;;;5.10;;